sensor_id;sensor_type;location;lat;lon;timestamp;temperature;humidity
14397;DHT22;50653;47.810;13.022;2023-08-12T00:01:49;19.50;99.90
14397;DHT22;50653;47.810;13.022;2023-08-12T00:04:15;19.40;99.90
14397;DHT22;50653;47.810;13.022;2023-08-12T00:06:42;19.40;99.90
14397;DHT22;50653;47.810;13.022;2023-08-12T00:09:08;19.40;99.90
14397;DHT22;50653;47.810;13.022;2023-08-12T00:11:36;19.30;99.90
14397;DHT22;50653;47.810;13.022;2023-08-12T00:14:02;19.40;99.90
14397;DHT22;50653;47.810;13.022;2023-08-12T00:16:28;19.30;99.90
14397;DHT22;50653;47.810;13.022;2023-08-12T00:18:53;19.30;99.90
14397;DHT22;50653;47.810;13.022;2023-08-12T00:21:19;19.30;99.90
14397;DHT22;50653;47.810;13.022;2023-08-12T00:23:45;19.20;99.90
14397;DHT22;50653;47.810;13.022;2023-08-12T00:26:13;19.20;99.90
14397;DHT22;50653;47.810;13.022;2023-08-12T00:28:39;19.20;99.90
14397;DHT22;50653;47.810;13.022;2023-08-12T00:31:04;19.20;99.90
14397;DHT22;50653;47.810;13.022;2023-08-12T00:33:30;19.10;99.90
14397;DHT22;50653;47.810;13.022;2023-08-12T00:35:56;19.10;99.90
14397;DHT22;50653;47.810;13.022;2023-08-12T00:38:21;19.00;99.90
14397;DHT22;50653;47.810;13.022;2023-08-12T00:40:47;18.90;99.90
14397;DHT22;50653;47.810;13.022;2023-08-12T00:43:13;19.00;99.90
14397;DHT22;50653;47.810;13.022;2023-08-12T00:45:39;19.00;99.90
14397;DHT22;50653;47.810;13.022;2023-08-12T00:48:05;18.90;99.90
14397;DHT22;50653;47.810;13.022;2023-08-12T00:50:34;18.90;99.90
14397;DHT22;50653;47.810;13.022;2023-08-12T00:53:01;18.80;99.90
14397;DHT22;50653;47.810;13.022;2023-08-12T00:55:27;18.90;99.90
14397;DHT22;50653;47.810;13.022;2023-08-12T00:57:52;19.00;99.90
14397;DHT22;50653;47.810;13.022;2023-08-12T01:00:19;19.00;99.90
14397;DHT22;50653;47.810;13.022;2023-08-12T01:02:47;19.00;99.90
14397;DHT22;50653;47.810;13.022;2023-08-12T01:05:14;19.00;99.90
14397;DHT22;50653;47.810;13.022;2023-08-12T01:07:42;19.00;99.90
14397;DHT22;50653;47.810;13.022;2023-08-12T01:10:08;18.90;99.90
14397;DHT22;50653;47.810;13.022;2023-08-12T01:13:07;18.90;99.90
14397;DHT22;50653;47.810;13.022;2023-08-12T01:15:35;19.00;99.90
14397;DHT22;50653;47.810;13.022;2023-08-12T01:18:02;18.90;99.90
14397;DHT22;50653;47.810;13.022;2023-08-12T01:20:28;19.00;99.90
14397;DHT22;50653;47.810;13.022;2023-08-12T01:23:15;18.90;99.90
14397;DHT22;50653;47.810;13.022;2023-08-12T01:25:41;18.90;99.90
14397;DHT22;50653;47.810;13.022;2023-08-12T01:28:07;18.80;99.90
14397;DHT22;50653;47.810;13.022;2023-08-12T01:30:46;18.90;99.90
14397;DHT22;50653;47.810;13.022;2023-08-12T01:33:21;18.70;99.90
14397;DHT22;50653;47.810;13.022;2023-08-12T01:35:54;18.70;99.90
14397;DHT22;50653;47.810;13.022;2023-08-12T01:38:26;18.60;99.90
14397;DHT22;50653;47.810;13.022;2023-08-12T01:40:52;18.40;99.90
14397;DHT22;50653;47.810;13.022;2023-08-12T01:43:18;18.50;99.90
14397;DHT22;50653;47.810;13.022;2023-08-12T01:45:44;18.60;99.90
14397;DHT22;50653;47.810;13.022;2023-08-12T01:48:10;18.70;99.90
14397;DHT22;50653;47.810;13.022;2023-08-12T01:50:36;18.60;99.90
14397;DHT22;50653;47.810;13.022;2023-08-12T01:53:02;18.40;99.90
14397;DHT22;50653;47.810;13.022;2023-08-12T01:55:29;18.40;99.90
14397;DHT22;50653;47.810;13.022;2023-08-12T01:57:55;18.50;99.90
14397;DHT22;50653;47.810;13.022;2023-08-12T02:00:20;18.50;99.90
14397;DHT22;50653;47.810;13.022;2023-08-12T02:02:46;18.50;99.90
14397;DHT22;50653;47.810;13.022;2023-08-12T02:05:13;18.50;99.90
14397;DHT22;50653;47.810;13.022;2023-08-12T02:07:39;18.50;99.90
14397;DHT22;50653;47.810;13.022;2023-08-12T02:10:05;18.60;99.90
14397;DHT22;50653;47.810;13.022;2023-08-12T02:12:31;18.60;99.90
14397;DHT22;50653;47.810;13.022;2023-08-12T02:14:56;18.60;99.90
14397;DHT22;50653;47.810;13.022;2023-08-12T02:17:23;18.50;99.90
14397;DHT22;50653;47.810;13.022;2023-08-12T02:19:51;18.50;99.90
14397;DHT22;50653;47.810;13.022;2023-08-12T02:22:16;18.50;99.90
14397;DHT22;50653;47.810;13.022;2023-08-12T02:24:42;18.30;99.90
14397;DHT22;50653;47.810;13.022;2023-08-12T02:27:08;18.30;99.90
14397;DHT22;50653;47.810;13.022;2023-08-12T02:29:33;18.30;99.90
14397;DHT22;50653;47.810;13.022;2023-08-12T02:31:59;18.30;99.90
14397;DHT22;50653;47.810;13.022;2023-08-12T02:34:25;18.30;99.90
14397;DHT22;50653;47.810;13.022;2023-08-12T02:36:51;18.40;99.90
14397;DHT22;50653;47.810;13.022;2023-08-12T02:39:16;18.30;99.90
14397;DHT22;50653;47.810;13.022;2023-08-12T02:41:42;18.20;99.90
14397;DHT22;50653;47.810;13.022;2023-08-12T02:44:08;18.30;99.90
14397;DHT22;50653;47.810;13.022;2023-08-12T02:46:33;18.20;99.90
14397;DHT22;50653;47.810;13.022;2023-08-12T02:48:59;18.20;99.90
14397;DHT22;50653;47.810;13.022;2023-08-12T02:51:24;18.20;99.90
14397;DHT22;50653;47.810;13.022;2023-08-12T02:53:50;18.20;99.90
14397;DHT22;50653;47.810;13.022;2023-08-12T02:56:16;18.20;99.90
14397;DHT22;50653;47.810;13.022;2023-08-12T02:58:41;18.20;99.90
14397;DHT22;50653;47.810;13.022;2023-08-12T03:01:07;18.30;99.90
14397;DHT22;50653;47.810;13.022;2023-08-12T03:03:33;18.30;99.90
14397;DHT22;50653;47.810;13.022;2023-08-12T03:05:59;18.30;99.90
14397;DHT22;50653;47.810;13.022;2023-08-12T03:08:26;18.30;99.90
14397;DHT22;50653;47.810;13.022;2023-08-12T03:11:03;18.30;99.90
14397;DHT22;50653;47.810;13.022;2023-08-12T03:13:30;18.30;99.90
14397;DHT22;50653;47.810;13.022;2023-08-12T03:15:56;18.20;99.90
14397;DHT22;50653;47.810;13.022;2023-08-12T03:18:22;18.20;99.90
14397;DHT22;50653;47.810;13.022;2023-08-12T03:20:48;18.20;99.90
14397;DHT22;50653;47.810;13.022;2023-08-12T03:23:14;18.20;99.90
14397;DHT22;50653;47.810;13.022;2023-08-12T03:25:42;18.20;99.90
14397;DHT22;50653;47.810;13.022;2023-08-12T03:28:10;18.20;99.90
14397;DHT22;50653;47.810;13.022;2023-08-12T03:30:37;18.00;99.90
14397;DHT22;50653;47.810;13.022;2023-08-12T03:33:03;18.10;99.90
14397;DHT22;50653;47.810;13.022;2023-08-12T03:35:31;18.20;99.90
14397;DHT22;50653;47.810;13.022;2023-08-12T03:37:57;18.10;99.90
14397;DHT22;50653;47.810;13.022;2023-08-12T03:40:23;18.10;99.90
14397;DHT22;50653;47.810;13.022;2023-08-12T03:42:49;18.20;99.90
14397;DHT22;50653;47.810;13.022;2023-08-12T03:45:16;18.20;99.90
14397;DHT22;50653;47.810;13.022;2023-08-12T03:47:42;18.20;99.90
14397;DHT22;50653;47.810;13.022;2023-08-12T03:50:09;18.20;99.90
14397;DHT22;50653;47.810;13.022;2023-08-12T03:52:34;18.10;99.90
14397;DHT22;50653;47.810;13.022;2023-08-12T03:55:00;18.10;99.90
14397;DHT22;50653;47.810;13.022;2023-08-12T03:57:26;18.10;99.90
14397;DHT22;50653;47.810;13.022;2023-08-12T03:59:52;18.10;99.90
14397;DHT22;50653;47.810;13.022;2023-08-12T04:02:18;18.10;99.90
14397;DHT22;50653;47.810;13.022;2023-08-12T04:04:44;18.00;99.90
14397;DHT22;50653;47.810;13.022;2023-08-12T04:07:10;18.00;99.90
14397;DHT22;50653;47.810;13.022;2023-08-12T04:09:38;18.00;99.90
14397;DHT22;50653;47.810;13.022;2023-08-12T04:12:04;18.10;99.90
14397;DHT22;50653;47.810;13.022;2023-08-12T04:14:30;18.10;99.90
14397;DHT22;50653;47.810;13.022;2023-08-12T04:16:56;18.10;99.90
14397;DHT22;50653;47.810;13.022;2023-08-12T04:19:21;18.10;99.90
14397;DHT22;50653;47.810;13.022;2023-08-12T04:21:47;18.10;99.90
14397;DHT22;50653;47.810;13.022;2023-08-12T04:24:13;18.10;99.90
14397;DHT22;50653;47.810;13.022;2023-08-12T04:26:39;18.00;99.90
14397;DHT22;50653;47.810;13.022;2023-08-12T04:29:05;18.10;99.90
14397;DHT22;50653;47.810;13.022;2023-08-12T04:31:34;18.00;99.90
14397;DHT22;50653;47.810;13.022;2023-08-12T04:34:02;18.00;99.90
14397;DHT22;50653;47.810;13.022;2023-08-12T04:36:29;18.00;99.90
14397;DHT22;50653;47.810;13.022;2023-08-12T04:38:56;18.10;99.90
14397;DHT22;50653;47.810;13.022;2023-08-12T04:41:22;18.10;99.90
14397;DHT22;50653;47.810;13.022;2023-08-12T04:43:49;18.10;99.90
14397;DHT22;50653;47.810;13.022;2023-08-12T04:46:15;18.10;99.90
14397;DHT22;50653;47.810;13.022;2023-08-12T04:48:41;18.10;99.90
14397;DHT22;50653;47.810;13.022;2023-08-12T04:51:07;18.10;99.90
14397;DHT22;50653;47.810;13.022;2023-08-12T04:53:33;18.10;99.90
14397;DHT22;50653;47.810;13.022;2023-08-12T04:55:59;18.10;99.90
14397;DHT22;50653;47.810;13.022;2023-08-12T04:58:26;18.20;99.90
14397;DHT22;50653;47.810;13.022;2023-08-12T05:00:52;18.20;99.90
14397;DHT22;50653;47.810;13.022;2023-08-12T05:03:19;18.20;99.90
14397;DHT22;50653;47.810;13.022;2023-08-12T05:05:52;18.20;99.90
14397;DHT22;50653;47.810;13.022;2023-08-12T05:08:19;18.30;99.90
14397;DHT22;50653;47.810;13.022;2023-08-12T05:10:49;18.30;99.90
14397;DHT22;50653;47.810;13.022;2023-08-12T05:13:15;18.30;99.90
14397;DHT22;50653;47.810;13.022;2023-08-12T05:15:41;18.40;99.90
14397;DHT22;50653;47.810;13.022;2023-08-12T05:18:08;18.40;99.90
14397;DHT22;50653;47.810;13.022;2023-08-12T05:20:33;18.40;99.90
14397;DHT22;50653;47.810;13.022;2023-08-12T05:22:59;18.60;99.90
14397;DHT22;50653;47.810;13.022;2023-08-12T05:25:27;18.60;99.90
14397;DHT22;50653;47.810;13.022;2023-08-12T05:27:53;18.60;99.90
14397;DHT22;50653;47.810;13.022;2023-08-12T05:30:18;18.70;99.90
14397;DHT22;50653;47.810;13.022;2023-08-12T05:32:44;18.70;99.90
14397;DHT22;50653;47.810;13.022;2023-08-12T05:35:13;18.80;99.90
14397;DHT22;50653;47.810;13.022;2023-08-12T05:37:39;18.80;99.90
14397;DHT22;50653;47.810;13.022;2023-08-12T05:40:05;18.80;99.90
14397;DHT22;50653;47.810;13.022;2023-08-12T05:42:34;19.00;99.90
14397;DHT22;50653;47.810;13.022;2023-08-12T05:45:00;19.10;99.90
14397;DHT22;50653;47.810;13.022;2023-08-12T05:47:25;19.20;99.90
14397;DHT22;50653;47.810;13.022;2023-08-12T05:49:51;19.30;99.90
14397;DHT22;50653;47.810;13.022;2023-08-12T05:52:19;19.30;99.90
14397;DHT22;50653;47.810;13.022;2023-08-12T05:54:45;19.40;99.90
14397;DHT22;50653;47.810;13.022;2023-08-12T05:57:10;19.50;99.90
14397;DHT22;50653;47.810;13.022;2023-08-12T05:59:36;19.50;99.90
14397;DHT22;50653;47.810;13.022;2023-08-12T06:02:02;19.60;99.90
14397;DHT22;50653;47.810;13.022;2023-08-12T06:04:27;19.60;99.90
14397;DHT22;50653;47.810;13.022;2023-08-12T06:06:53;19.60;99.90
14397;DHT22;50653;47.810;13.022;2023-08-12T06:09:19;19.70;99.90
14397;DHT22;50653;47.810;13.022;2023-08-12T06:11:44;19.80;99.90
14397;DHT22;50653;47.810;13.022;2023-08-12T06:14:10;19.90;99.90
14397;DHT22;50653;47.810;13.022;2023-08-12T06:16:35;19.90;99.90
14397;DHT22;50653;47.810;13.022;2023-08-12T06:19:01;19.90;99.90
14397;DHT22;50653;47.810;13.022;2023-08-12T06:21:27;20.00;99.90
14397;DHT22;50653;47.810;13.022;2023-08-12T06:23:52;20.10;99.90
14397;DHT22;50653;47.810;13.022;2023-08-12T06:26:18;20.10;99.90
14397;DHT22;50653;47.810;13.022;2023-08-12T06:28:44;20.20;99.90
14397;DHT22;50653;47.810;13.022;2023-08-12T06:31:09;20.20;99.90
14397;DHT22;50653;47.810;13.022;2023-08-12T06:33:35;20.30;99.90
14397;DHT22;50653;47.810;13.022;2023-08-12T06:36:01;20.40;99.90
14397;DHT22;50653;47.810;13.022;2023-08-12T06:38:27;20.50;99.90
14397;DHT22;50653;47.810;13.022;2023-08-12T06:40:52;20.60;99.90
14397;DHT22;50653;47.810;13.022;2023-08-12T06:43:18;20.60;99.90
14397;DHT22;50653;47.810;13.022;2023-08-12T06:45:44;20.70;99.90
14397;DHT22;50653;47.810;13.022;2023-08-12T06:48:10;20.80;99.90
14397;DHT22;50653;47.810;13.022;2023-08-12T06:50:35;20.90;99.90
14397;DHT22;50653;47.810;13.022;2023-08-12T06:53:01;20.90;99.90
14397;DHT22;50653;47.810;13.022;2023-08-12T06:55:27;20.90;99.90
14397;DHT22;50653;47.810;13.022;2023-08-12T06:57:53;21.00;99.90
14397;DHT22;50653;47.810;13.022;2023-08-12T07:00:19;21.10;99.90
14397;DHT22;50653;47.810;13.022;2023-08-12T07:02:47;21.20;99.90
14397;DHT22;50653;47.810;13.022;2023-08-12T07:05:13;21.30;99.90
14397;DHT22;50653;47.810;13.022;2023-08-12T07:07:38;21.40;99.90
14397;DHT22;50653;47.810;13.022;2023-08-12T07:10:04;21.40;99.90
14397;DHT22;50653;47.810;13.022;2023-08-12T07:12:31;21.40;99.90
14397;DHT22;50653;47.810;13.022;2023-08-12T07:14:58;21.40;99.90
14397;DHT22;50653;47.810;13.022;2023-08-12T07:17:24;21.50;99.90
14397;DHT22;50653;47.810;13.022;2023-08-12T07:20:06;21.60;99.90
14397;DHT22;50653;47.810;13.022;2023-08-12T07:30:20;21.80;99.90
14397;DHT22;50653;47.810;13.022;2023-08-12T07:32:46;21.80;99.90
14397;DHT22;50653;47.810;13.022;2023-08-12T07:35:11;21.80;99.90
14397;DHT22;50653;47.810;13.022;2023-08-12T07:37:37;21.90;99.90
14397;DHT22;50653;47.810;13.022;2023-08-12T07:40:03;22.00;99.90
14397;DHT22;50653;47.810;13.022;2023-08-12T07:42:29;22.10;99.90
14397;DHT22;50653;47.810;13.022;2023-08-12T07:44:55;22.10;99.90
14397;DHT22;50653;47.810;13.022;2023-08-12T07:47:24;22.20;99.90
14397;DHT22;50653;47.810;13.022;2023-08-12T07:49:49;22.30;99.90
14397;DHT22;50653;47.810;13.022;2023-08-12T07:52:15;22.30;99.90
14397;DHT22;50653;47.810;13.022;2023-08-12T07:54:41;22.40;99.90
14397;DHT22;50653;47.810;13.022;2023-08-12T07:57:06;22.40;99.90
14397;DHT22;50653;47.810;13.022;2023-08-12T07:59:35;22.50;99.90
14397;DHT22;50653;47.810;13.022;2023-08-12T08:02:07;22.60;99.90
14397;DHT22;50653;47.810;13.022;2023-08-12T08:04:33;22.60;99.90
14397;DHT22;50653;47.810;13.022;2023-08-12T08:07:00;22.70;99.90
14397;DHT22;50653;47.810;13.022;2023-08-12T08:09:26;22.80;99.90
14397;DHT22;50653;47.810;13.022;2023-08-12T08:11:54;23.00;99.90
14397;DHT22;50653;47.810;13.022;2023-08-12T08:14:20;23.00;99.90
14397;DHT22;50653;47.810;13.022;2023-08-12T08:16:46;23.10;99.90
14397;DHT22;50653;47.810;13.022;2023-08-12T08:19:14;23.10;99.20
14397;DHT22;50653;47.810;13.022;2023-08-12T08:21:42;23.20;98.50
14397;DHT22;50653;47.810;13.022;2023-08-12T08:24:08;23.30;98.60
14397;DHT22;50653;47.810;13.022;2023-08-12T08:26:36;23.30;98.90
14397;DHT22;50653;47.810;13.022;2023-08-12T08:29:05;23.40;99.20
14397;DHT22;50653;47.810;13.022;2023-08-12T08:31:31;23.40;98.80
14397;DHT22;50653;47.810;13.022;2023-08-12T08:34:00;23.50;98.50
14397;DHT22;50653;47.810;13.022;2023-08-12T08:36:25;23.60;98.60
14397;DHT22;50653;47.810;13.022;2023-08-12T08:41:39;23.60;97.90
14397;DHT22;50653;47.810;13.022;2023-08-12T08:44:07;23.60;97.70
14397;DHT22;50653;47.810;13.022;2023-08-12T08:46:34;23.70;97.10
14397;DHT22;50653;47.810;13.022;2023-08-12T08:49:01;23.80;97.50
14397;DHT22;50653;47.810;13.022;2023-08-12T08:51:37;23.90;97.50
14397;DHT22;50653;47.810;13.022;2023-08-12T08:54:06;24.00;97.70
14397;DHT22;50653;47.810;13.022;2023-08-12T08:56:35;24.10;96.80
14397;DHT22;50653;47.810;13.022;2023-08-12T08:59:05;24.10;96.50
14397;DHT22;50653;47.810;13.022;2023-08-12T09:01:31;24.30;96.80
14397;DHT22;50653;47.810;13.022;2023-08-12T09:03:58;24.30;96.00
14397;DHT22;50653;47.810;13.022;2023-08-12T09:06:25;24.40;96.00
14397;DHT22;50653;47.810;13.022;2023-08-12T09:08:53;24.40;96.60
14397;DHT22;50653;47.810;13.022;2023-08-12T09:11:38;24.40;96.10
14397;DHT22;50653;47.810;13.022;2023-08-12T09:14:07;24.50;95.60
14397;DHT22;50653;47.810;13.022;2023-08-12T09:16:34;24.60;95.90
14397;DHT22;50653;47.810;13.022;2023-08-12T09:19:08;24.60;96.20
14397;DHT22;50653;47.810;13.022;2023-08-12T09:21:37;24.60;95.40
14397;DHT22;50653;47.810;13.022;2023-08-12T09:24:14;24.70;95.60
14397;DHT22;50653;47.810;13.022;2023-08-12T09:26:45;24.80;96.30
14397;DHT22;50653;47.810;13.022;2023-08-12T09:29:16;24.90;95.70
14397;DHT22;50653;47.810;13.022;2023-08-12T09:31:42;24.90;95.30
14397;DHT22;50653;47.810;13.022;2023-08-12T09:34:10;25.00;94.50
14397;DHT22;50653;47.810;13.022;2023-08-12T09:36:36;25.10;93.90
14397;DHT22;50653;47.810;13.022;2023-08-12T09:39:09;25.10;93.20
14397;DHT22;50653;47.810;13.022;2023-08-12T09:41:38;25.10;93.10
14397;DHT22;50653;47.810;13.022;2023-08-12T09:44:05;25.20;93.40
14397;DHT22;50653;47.810;13.022;2023-08-12T09:46:33;25.30;93.20
14397;DHT22;50653;47.810;13.022;2023-08-12T09:48:59;25.30;93.50
14397;DHT22;50653;47.810;13.022;2023-08-12T09:51:25;25.30;93.50
14397;DHT22;50653;47.810;13.022;2023-08-12T09:53:52;25.40;92.70
14397;DHT22;50653;47.810;13.022;2023-08-12T09:56:19;25.40;92.50
14397;DHT22;50653;47.810;13.022;2023-08-12T09:58:50;25.40;91.50
14397;DHT22;50653;47.810;13.022;2023-08-12T10:01:19;25.50;91.70
14397;DHT22;50653;47.810;13.022;2023-08-12T10:03:51;25.50;91.90
14397;DHT22;50653;47.810;13.022;2023-08-12T10:06:17;25.70;93.30
14397;DHT22;50653;47.810;13.022;2023-08-12T10:08:46;25.70;93.40
14397;DHT22;50653;47.810;13.022;2023-08-12T10:11:13;25.80;92.30
14397;DHT22;50653;47.810;13.022;2023-08-12T10:13:43;25.70;92.90
14397;DHT22;50653;47.810;13.022;2023-08-12T10:16:10;25.70;91.70
14397;DHT22;50653;47.810;13.022;2023-08-12T10:18:36;25.80;91.30
14397;DHT22;50653;47.810;13.022;2023-08-12T10:21:04;25.90;91.30
14397;DHT22;50653;47.810;13.022;2023-08-12T10:23:32;26.10;91.00
14397;DHT22;50653;47.810;13.022;2023-08-12T10:26:00;26.00;90.90
14397;DHT22;50653;47.810;13.022;2023-08-12T10:28:29;26.20;90.20
14397;DHT22;50653;47.810;13.022;2023-08-12T10:30:57;26.30;91.20
14397;DHT22;50653;47.810;13.022;2023-08-12T10:33:23;26.30;90.40
14397;DHT22;50653;47.810;13.022;2023-08-12T10:35:49;26.10;89.70
14397;DHT22;50653;47.810;13.022;2023-08-12T10:38:19;26.10;90.60
14397;DHT22;50653;47.810;13.022;2023-08-12T10:40:47;26.20;90.40
14397;DHT22;50653;47.810;13.022;2023-08-12T10:43:14;26.40;89.20
14397;DHT22;50653;47.810;13.022;2023-08-12T10:45:47;26.40;89.60
14397;DHT22;50653;47.810;13.022;2023-08-12T10:48:25;26.40;91.60
14397;DHT22;50653;47.810;13.022;2023-08-12T10:50:55;26.50;92.00
14397;DHT22;50653;47.810;13.022;2023-08-12T10:53:29;26.50;92.90
14397;DHT22;50653;47.810;13.022;2023-08-12T10:56:01;26.60;90.50
14397;DHT22;50653;47.810;13.022;2023-08-12T10:58:46;26.70;91.00
14397;DHT22;50653;47.810;13.022;2023-08-12T11:01:19;26.70;91.20
14397;DHT22;50653;47.810;13.022;2023-08-12T11:03:47;26.80;91.50
14397;DHT22;50653;47.810;13.022;2023-08-12T11:06:13;26.90;92.50
14397;DHT22;50653;47.810;13.022;2023-08-12T11:08:49;27.00;93.30
14397;DHT22;50653;47.810;13.022;2023-08-12T11:11:23;27.00;91.10
14397;DHT22;50653;47.810;13.022;2023-08-12T11:14:00;27.00;89.70
14397;DHT22;50653;47.810;13.022;2023-08-12T11:16:37;26.90;89.50
14397;DHT22;50653;47.810;13.022;2023-08-12T11:19:06;27.00;90.90
14397;DHT22;50653;47.810;13.022;2023-08-12T11:21:57;27.00;91.00
14397;DHT22;50653;47.810;13.022;2023-08-12T11:24:23;27.00;89.10
14397;DHT22;50653;47.810;13.022;2023-08-12T11:26:49;27.00;88.70
14397;DHT22;50653;47.810;13.022;2023-08-12T11:29:16;27.10;89.50
14397;DHT22;50653;47.810;13.022;2023-08-12T11:31:43;27.10;89.30
14397;DHT22;50653;47.810;13.022;2023-08-12T11:34:09;27.10;89.20
14397;DHT22;50653;47.810;13.022;2023-08-12T11:36:35;27.20;87.50
14397;DHT22;50653;47.810;13.022;2023-08-12T11:39:01;27.40;87.50
14397;DHT22;50653;47.810;13.022;2023-08-12T11:41:27;27.50;81.60
14397;DHT22;50653;47.810;13.022;2023-08-12T11:43:53;27.50;80.40
14397;DHT22;50653;47.810;13.022;2023-08-12T11:46:18;27.50;82.00
14397;DHT22;50653;47.810;13.022;2023-08-12T11:48:44;27.50;81.50
14397;DHT22;50653;47.810;13.022;2023-08-12T11:51:10;27.40;78.30
14397;DHT22;50653;47.810;13.022;2023-08-12T11:53:35;27.60;78.90
14397;DHT22;50653;47.810;13.022;2023-08-12T11:56:01;27.60;83.20
14397;DHT22;50653;47.810;13.022;2023-08-12T11:58:36;27.70;83.70
14397;DHT22;50653;47.810;13.022;2023-08-12T12:01:02;27.80;80.80
14397;DHT22;50653;47.810;13.022;2023-08-12T12:03:28;27.90;79.50
14397;DHT22;50653;47.810;13.022;2023-08-12T12:05:57;27.80;75.70
14397;DHT22;50653;47.810;13.022;2023-08-12T12:08:22;27.60;76.20
14397;DHT22;50653;47.810;13.022;2023-08-12T12:10:48;28.00;78.40
14397;DHT22;50653;47.810;13.022;2023-08-12T12:13:14;28.00;77.10
14397;DHT22;50653;47.810;13.022;2023-08-12T12:15:43;28.20;78.40
14397;DHT22;50653;47.810;13.022;2023-08-12T12:18:13;28.10;77.20
14397;DHT22;50653;47.810;13.022;2023-08-12T12:23:21;28.20;77.50
14397;DHT22;50653;47.810;13.022;2023-08-12T12:25:47;28.30;77.80
14397;DHT22;50653;47.810;13.022;2023-08-12T12:28:12;28.40;78.60
14397;DHT22;50653;47.810;13.022;2023-08-12T12:30:38;28.40;79.20
14397;DHT22;50653;47.810;13.022;2023-08-12T12:33:04;28.50;78.20
14397;DHT22;50653;47.810;13.022;2023-08-12T12:35:30;28.50;77.00
14397;DHT22;50653;47.810;13.022;2023-08-12T12:37:55;28.50;75.60
14397;DHT22;50653;47.810;13.022;2023-08-12T12:40:29;28.60;75.00
14397;DHT22;50653;47.810;13.022;2023-08-12T12:42:55;28.80;76.30
14397;DHT22;50653;47.810;13.022;2023-08-12T12:45:20;28.90;76.30
14397;DHT22;50653;47.810;13.022;2023-08-12T12:47:46;28.90;74.90
14397;DHT22;50653;47.810;13.022;2023-08-12T12:50:12;28.80;72.90
14397;DHT22;50653;47.810;13.022;2023-08-12T12:52:37;29.00;77.30
14397;DHT22;50653;47.810;13.022;2023-08-12T12:55:03;29.10;78.80
14397;DHT22;50653;47.810;13.022;2023-08-12T12:57:30;29.20;79.20
14397;DHT22;50653;47.810;13.022;2023-08-12T12:59:55;29.30;81.00
14397;DHT22;50653;47.810;13.022;2023-08-12T13:02:21;29.40;81.90
14397;DHT22;50653;47.810;13.022;2023-08-12T13:04:46;29.50;82.20
14397;DHT22;50653;47.810;13.022;2023-08-12T13:07:12;29.50;84.10
14397;DHT22;50653;47.810;13.022;2023-08-12T13:09:38;29.50;82.60
14397;DHT22;50653;47.810;13.022;2023-08-12T13:12:04;29.60;83.60
14397;DHT22;50653;47.810;13.022;2023-08-12T13:14:29;29.30;83.40
14397;DHT22;50653;47.810;13.022;2023-08-12T13:16:55;29.30;84.80
14397;DHT22;50653;47.810;13.022;2023-08-12T13:19:21;29.30;84.10
14397;DHT22;50653;47.810;13.022;2023-08-12T13:21:47;29.30;85.30
14397;DHT22;50653;47.810;13.022;2023-08-12T13:24:12;29.40;85.50
14397;DHT22;50653;47.810;13.022;2023-08-12T13:26:38;29.50;84.50
14397;DHT22;50653;47.810;13.022;2023-08-12T13:29:04;29.60;83.90
14397;DHT22;50653;47.810;13.022;2023-08-12T13:31:29;29.80;85.30
14397;DHT22;50653;47.810;13.022;2023-08-12T13:33:55;29.80;84.30
14397;DHT22;50653;47.810;13.022;2023-08-12T13:36:21;29.80;83.50
14397;DHT22;50653;47.810;13.022;2023-08-12T13:38:47;29.70;83.30
14397;DHT22;50653;47.810;13.022;2023-08-12T13:41:12;29.70;83.50
14397;DHT22;50653;47.810;13.022;2023-08-12T13:43:38;29.70;86.10
14397;DHT22;50653;47.810;13.022;2023-08-12T13:46:04;29.80;84.00
14397;DHT22;50653;47.810;13.022;2023-08-12T13:48:29;29.90;83.10
14397;DHT22;50653;47.810;13.022;2023-08-12T13:50:56;29.90;83.30
14397;DHT22;50653;47.810;13.022;2023-08-12T13:53:21;30.00;82.50
14397;DHT22;50653;47.810;13.022;2023-08-12T13:55:49;29.90;82.40
14397;DHT22;50653;47.810;13.022;2023-08-12T13:58:15;29.90;82.90
14397;DHT22;50653;47.810;13.022;2023-08-12T14:00:40;29.90;83.50
14397;DHT22;50653;47.810;13.022;2023-08-12T14:03:06;29.80;82.50
14397;DHT22;50653;47.810;13.022;2023-08-12T14:05:32;30.00;83.40
14397;DHT22;50653;47.810;13.022;2023-08-12T14:07:57;30.40;84.10
14397;DHT22;50653;47.810;13.022;2023-08-12T14:10:24;30.50;83.80
14397;DHT22;50653;47.810;13.022;2023-08-12T14:12:50;30.40;84.10
14397;DHT22;50653;47.810;13.022;2023-08-12T14:15:15;30.40;83.40
14397;DHT22;50653;47.810;13.022;2023-08-12T14:17:41;30.40;82.70
14397;DHT22;50653;47.810;13.022;2023-08-12T14:20:07;30.40;83.30
14397;DHT22;50653;47.810;13.022;2023-08-12T14:22:35;30.50;83.50
14397;DHT22;50653;47.810;13.022;2023-08-12T14:25:02;30.50;83.40
14397;DHT22;50653;47.810;13.022;2023-08-12T14:27:29;30.50;82.60
14397;DHT22;50653;47.810;13.022;2023-08-12T14:29:55;30.60;83.60
14397;DHT22;50653;47.810;13.022;2023-08-12T14:32:20;30.80;83.80
14397;DHT22;50653;47.810;13.022;2023-08-12T14:34:46;30.90;82.70
14397;DHT22;50653;47.810;13.022;2023-08-12T14:37:12;31.00;83.90
14397;DHT22;50653;47.810;13.022;2023-08-12T14:39:38;31.10;81.80
14397;DHT22;50653;47.810;13.022;2023-08-12T14:42:05;30.90;81.40
14397;DHT22;50653;47.810;13.022;2023-08-12T14:44:30;30.60;81.20
14397;DHT22;50653;47.810;13.022;2023-08-12T14:46:58;30.40;82.30
14397;DHT22;50653;47.810;13.022;2023-08-12T14:49:24;30.30;82.00
14397;DHT22;50653;47.810;13.022;2023-08-12T14:51:50;30.20;81.40
14397;DHT22;50653;47.810;13.022;2023-08-12T14:54:16;30.00;82.00
14397;DHT22;50653;47.810;13.022;2023-08-12T14:56:41;30.10;82.80
14397;DHT22;50653;47.810;13.022;2023-08-12T14:59:08;30.00;82.60
14397;DHT22;50653;47.810;13.022;2023-08-12T15:01:33;30.10;82.20
14397;DHT22;50653;47.810;13.022;2023-08-12T15:03:59;30.30;82.40
14397;DHT22;50653;47.810;13.022;2023-08-12T15:06:24;30.40;82.70
14397;DHT22;50653;47.810;13.022;2023-08-12T15:08:50;30.60;83.30
14397;DHT22;50653;47.810;13.022;2023-08-12T15:11:16;30.60;83.50
14397;DHT22;50653;47.810;13.022;2023-08-12T15:13:42;30.80;83.70
14397;DHT22;50653;47.810;13.022;2023-08-12T15:16:08;31.00;83.60
14397;DHT22;50653;47.810;13.022;2023-08-12T15:18:33;30.90;82.80
14397;DHT22;50653;47.810;13.022;2023-08-12T15:20:59;31.10;82.90
14397;DHT22;50653;47.810;13.022;2023-08-12T15:23:25;31.30;82.60
14397;DHT22;50653;47.810;13.022;2023-08-12T15:25:50;31.30;82.70
14397;DHT22;50653;47.810;13.022;2023-08-12T15:28:16;31.60;82.40